Terminal Aerodrome Forecast
Issued by NWS

Current Version | Previous Version | Graphics & Text | Print | Product List | Glossary On
Versions: 1 2 3 4 5 6 7 8 9 10 11 12 13 14 15 16 17 18 19 20 21
000
FTUS41 KILN 221129
TAFLUK
TAF
KLUK 221129Z 2212/2312 20003KT P6SM BKN004
     FM221400 21006KT P6SM SCT025 BKN100
     FM221800 20009KT 3SM -SHRA BR VCTS BKN045CB
     FM230000 20007KT P6SM VCSH BKN045
     FM230600 20003KT 4SM BR BKN018=

USA.gov is the U.S. government's official web portal to all federal, state and local government web resources and services.